Jefferson, Oregon
Current Conditions -  °F | °C
As of 3:56 AM on Friday 24 Oct 2014 (Local Time) from KSLE Reporting Station
Clear Clear  
Wind Chill: 51°   Ceiling: Unl
Heat Index: 51°   Visibility: 10mi
Dew Point: 47°   Wind: 3mph
Humidity: 86%   Direction: 130°SE
Pressure: 30"   Gusts: NA
Location:  44.72°N, 123.01°W
Report Text: KSLE 241056Z AUTO 13003KT 10SM CLR 11/08 A3000 RMK AO2 SLP159 T01060083
Loading
Personal Weather Stations






























Interactive Weather Map
Tropical Storm Tracking
New forecast layout! Learn more

10-Day Weather Forecast

Advertisements
Track Severe Weather on mobile